Latest Weather Observations for Tamworth Airport

IDN60801

Issued at 11:02 am EDT Wednesday 1 April 2015 (issued every 30 minutes, with the page automatically refreshed every 10 minutes)

About weather observations | Map of weather stations | Latest weather observations for NSW | Other Formats
Station Details ID: 055325 Name: TAMWORTH AIRPORT AWS Lat: -31.07 Lon: 150.84 Height: 394.9 m
Data from the previous 72 hours. | See also: Recent months at Tamworth Airport
Date/Time
EDT
Temp
°C
App
Temp
°C
Dew
Point
Rel
Hum
%
Delta-T
°C
Wind Press
QNH
hPa
Press
MSL
hPa
Rain
since 9 am
mm
Dir
 
Spd
km/h
Gust
km/h
Spd
kts
Gust
kts
01/11:00am 25.5 21.2 9.3 36 9.0 ENE 22 30 12 16 1023.8 1022.7 0.0
01/10:30am 24.4 20.9 8.8 37 8.5 NE 17 26 9 14 1024.2 1022.5 0.0
01/10:00am 23.6 19.9 10.3 43 7.4 E 20 30 11 16 1024.7 1023.0 0.0
01/09:30am 22.6 20.1 11.0 48 6.5 E 15 22 8 12 1024.9 1023.2 0.0
01/09:00am 20.4 17.0 11.1 55 5.2 ESE 20 24 11 13 1025.1 1023.4 0.0
01/08:30am 18.6 15.7 10.9 61 4.3 SE 17 22 9 12 1024.9 1023.2 0.0
01/08:00am 16.4 14.3 11.1 71 2.9 S 13 15 7 8 1024.7 1023.0 0.0
01/07:30am 15.0 12.5 11.2 78 2.1 S 15 15 8 8 1024.3 1022.6 0.0
01/07:00am 14.1 11.6 11.1 82 1.6 SSE 15 17 8 9 1024.1 1022.4 0.0
01/06:30am 14.3 12.2 11.1 81 1.7 SE 13 15 7 8 1023.8 1022.1 0.0
01/06:00am 14.4 11.9 11.0 80 1.8 SE 15 17 8 9 1023.2 1021.5 0.0
01/05:30am 14.5 12.4 11.1 80 1.8 SSE 13 15 7 8 1023.1 1021.4 0.0
01/05:00am 15.4 13.3 11.0 75 2.4 ESE 13 15 7 8 1022.7 1021.0 0.0
01/04:30am 15.5 12.7 11.5 77 2.2 SE 17 20 9 11 1022.8 1021.1 0.0
01/04:00am 15.9 13.6 11.7 76 2.3 SE 15 20 8 11 1023.0 1021.3 0.0
01/03:30am 16.3 14.0 11.9 75 2.4 SE 15 19 8 10 1023.3 1021.6 0.0
01/03:00am 16.0 13.8 12.2 78 2.1 ESE 15 17 8 9 1023.6 1021.9 0.0
01/02:30am 15.3 13.8 11.9 80 1.9 SE 11 15 6 8 1024.0 1022.3 0.0
01/02:00am 15.4 13.9 11.8 79 2.0 SE 11 13 6 7 1024.2 1022.5 0.0
01/01:30am 16.8 14.7 12.5 76 2.4 SE 15 17 8 9 1024.3 1022.6 0.0
01/01:00am 17.2 14.3 12.3 73 2.7 ESE 19 20 10 11 1024.3 1022.6 0.0
01/12:30am 17.5 14.6 12.4 72 2.9 SE 19 20 10 11 1024.2 1022.5 0.0
01/12:00am 18.0 16.4 12.7 71 3.0 SE 13 17 7 9 1024.1 1022.4 0.0
 
Date/Time
EDT
Temp
°C
App
Temp
°C
Dew
Point
Rel
Hum
%
Delta-T
°C
Wind Press
QNH
hPa
Press
MSL
hPa
Rain
since 9 am
mm
Dir
 
Spd
km/h
Gust
km/h
Spd
kts
Gust
kts
31/11:30pm 18.8 16.4 12.8 68 3.4 SE 17 20 9 11 1023.9 1022.2 0.0
31/11:00pm 19.0 16.7 13.0 68 3.4 SE 17 20 9 11 1023.9 1022.2 0.0
31/10:30pm 19.4 17.4 12.7 65 3.8 SE 15 20 8 11 1023.9 1022.2 0.0
31/10:00pm 19.6 17.9 12.6 64 4.0 ESE 13 17 7 9 1023.8 1022.1 0.0
31/09:30pm 20.3 18.3 12.8 62 4.3 E 15 20 8 11 1023.9 1022.2 0.0
31/09:00pm 20.5 18.7 13.2 63 4.2 ESE 15 24 8 13 1023.8 1022.1 0.0
31/08:30pm 19.8 18.4 13.3 66 3.8 SE 13 15 7 8 1023.6 1021.9 0.0
31/08:00pm 19.4 19.3 13.8 70 3.3 SSE 7 11 4 6 1023.5 1021.8 0.0
31/07:30pm 19.2 19.2 14.2 73 2.9 SSW 7 9 4 5 1023.1 1021.4 0.0
31/07:00pm 19.8 18.6 14.0 69 3.4 SW 13 17 7 9 1022.9 1021.2 0.0
31/06:30pm 20.6 18.8 13.3 63 4.2 W 15 22 8 12 1022.6 1020.9 0.0
31/06:00pm 22.1 21.1 12.4 54 5.6 NNW 9 13 5 7 1021.9 1020.2 0.0
31/05:30pm 23.5 19.8 10.2 43 7.4 NE 20 26 11 14 1021.4 1019.7 0.0
31/05:00pm 24.6 19.9 9.3 38 8.4 E 24 35 13 19 1021.2 1019.4 0.0
31/04:30pm 27.3 23.2 8.7 31 10.3 E 20 26 11 14 1020.8 1019.0 0.0
31/04:00pm 27.3 23.4 8.7 31 10.3 ENE 19 26 10 14 1020.8 1019.0 0.0
31/03:30pm 26.0 22.5 8.9 34 9.5 E 17 30 9 16 1020.9 1019.1 0.0
31/03:00pm 28.2 25.9 5.7 24 11.9 SSE 7 17 4 9 1021.0 1019.2 0.0
31/02:30pm 27.2 24.6 6.0 26 11.2 NNE 9 15 5 8 1021.4 1019.7 0.0
31/02:00pm 27.2 24.3 6.6 27 11.0 S 11 17 6 9 1021.8 1020.1 0.0
31/01:30pm 26.7 24.5 7.7 30 10.3 S 9 15 5 8 1022.3 1020.6 0.0
31/01:00pm 26.8 25.1 8.3 31 10.1 SSW 7 17 4 9 1023.0 1021.3 0.0
31/12:30pm 26.1 24.6 8.6 33 9.6 SSE 6 11 3 6 1023.8 1022.1 0.0
31/12:00pm 25.8 24.1 8.3 33 9.5 N 7 11 4 6 1024.3 1022.6 0.0
31/11:30am 25.3 24.1 10.4 39 8.4 SE 7 13 4 7 1024.7 1023.0 0.0
31/11:00am 24.2 23.5 10.1 41 7.9 NE 4 11 2 6 1025.1 1023.4 0.0
31/10:30am 22.3 21.0 9.8 45 6.9 E 7 13 4 7 1025.3 1023.6 0.0
31/10:00am 21.4 20.1 11.4 53 5.6 E 9 13 5 7 1025.4 1023.7 0.0
31/09:30am 19.6 19.2 13.1 66 3.8 ENE 7 11 4 6 1025.4 1023.7 0.0
31/09:00am 17.2 15.8 12.3 73 2.7 SE 11 13 6 7 1025.2 1023.5 1.0
31/08:30am 16.8 15.6 12.9 78 2.2 SE 11 13 6 7 1024.9 1023.2 1.0
31/08:00am 14.6 13.8 13.0 90 0.9 S 9 11 5 6 1024.4 1022.7 1.0
31/07:30am 12.0 11.0 10.4 90 0.8 WNW 6 7 3 4 1024.1 1022.4 1.0
31/07:00am 13.2 11.5 11.3 88 1.0 SE 11 15 6 8 1023.8 1022.1 1.0
31/06:30am 13.5 11.5 11.6 88 1.0 SSE 13 13 7 7 1023.5 1021.8 1.0
31/06:00am 13.2 12.6 11.6 90 0.9 SSE 6 11 3 6 1023.5 1021.8 1.0
31/05:30am 13.5 11.6 11.9 90 0.9 SSE 13 13 7 7 1023.1 1021.4 1.0
31/05:00am 13.9 12.1 12.1 89 1.0 SSE 13 15 7 8 1023.1 1021.4 1.0
31/04:30am 13.8 12.0 12.0 89 1.0 SSE 13 17 7 9 1022.9 1021.2 1.0
31/04:00am 13.9 12.5 12.1 89 1.0 SSE 11 13 6 7 1023.2 1021.5 1.0
31/03:30am 14.3 12.6 12.3 88 1.1 SSE 13 15 7 8 1023.5 1021.8 1.0
31/03:00am 14.2 12.4 12.2 88 1.1 SSE 13 15 7 8 1023.7 1022.0 1.0
31/02:30am 14.0 12.6 12.2 89 1.0 SSE 11 13 6 7 1024.1 1022.4 1.0
31/02:00am 13.9 13.5 12.3 90 0.9 S 6 9 3 5 1024.3 1022.6 1.0
31/01:30am 14.4 13.1 12.6 89 1.0 SE 11 13 6 7 1024.4 1022.7 1.0
31/01:00am 14.6 13.8 12.8 89 1.0 SE 9 11 5 6 1024.5 1022.8 1.0
31/12:30am 14.8 14.7 13.3 91 0.8 S 6 7 3 4 1024.4 1022.7 1.0
31/12:00am 14.3 15.0 12.3 88 1.1 CALM 0 0 0 0 1024.6 1022.9 1.0
 
Date/Time
EDT
Temp
°C
App
Temp
°C
Dew
Point
Rel
Hum
%
Delta-T
°C
Wind Press
QNH
hPa
Press
MSL
hPa
Rain
since 9 am
mm
Dir
 
Spd
km/h
Gust
km/h
Spd
kts
Gust
kts
30/11:30pm 15.5 15.5 13.7 89 1.0 SSE 6 9 3 5 1024.7 1023.0 1.0
30/11:00pm 15.4 15.1 13.4 88 1.1 S 7 9 4 5 1024.7 1023.0 1.0
30/10:30pm 15.2 15.0 13.1 87 1.2 SW 6 6 3 3 1024.8 1023.1 1.0
30/10:00pm 16.5 16.4 13.8 84 1.5 SE 7 9 4 5 1024.8 1023.1 1.0
30/09:30pm 16.8 16.3 13.9 83 1.7 S 9 11 5 6 1024.6 1022.9 1.0
30/09:00pm 16.8 16.4 14.1 84 1.6 SSE 9 9 5 5 1024.3 1022.6 1.0
30/08:30pm 16.9 16.1 14.0 83 1.7 SSE 11 13 6 7 1024.3 1022.6 1.0
30/08:00pm 18.1 19.1 14.2 78 2.3 WSW 2 9 1 5 1023.9 1022.2 1.0
30/07:30pm 19.1 19.3 14.8 76 2.6 WNW 7 9 4 5 1023.7 1022.0 1.0
30/07:00pm 19.9 20.0 14.5 71 3.2 WNW 7 7 4 4 1023.6 1021.9 1.0
30/06:30pm 20.5 20.5 14.2 67 3.7 NW 7 9 4 5 1023.3 1021.6 1.0
30/06:00pm 21.1 20.4 14.3 65 4.0 NW 11 13 6 7 1023.1 1021.4 1.0
30/05:30pm 21.5 21.0 13.7 61 4.6 WNW 9 11 5 6 1022.7 1021.0 1.0
30/05:00pm 22.0 21.4 13.6 59 4.9 NW 9 13 5 7 1022.7 1021.0 1.0
30/04:30pm 21.6 20.3 13.8 61 4.6 N 13 15 7 8 1022.5 1020.8 1.0
30/04:00pm 22.8 20.8 11.5 49 6.4 N 13 17 7 9 1022.6 1020.9 0.8
30/03:30pm 23.1 21.7 12.1 50 6.3 NNW 11 17 6 9 1022.7 1021.0 0.8
30/03:00pm 22.8 23.6 12.7 53 5.9 CALM 0 9 0 5 1022.6 1020.9 0.8
30/02:30pm 22.9 22.5 12.5 52 6.0 NW 6 11 3 6 1022.9 1021.2 0.8
30/02:00pm 21.8 21.5 12.6 56 5.3 NNE 6 9 3 5 1023.2 1021.5 0.8
30/01:30pm 21.1 20.3 12.8 59 4.8 N 9 11 5 6 1023.7 1022.0 0.8
30/01:00pm 20.5 19.5 13.5 64 4.1 N 11 13 6 7 1024.1 1022.4 0.8
30/12:30pm 19.3 17.3 12.8 66 3.7 NNE 15 19 8 10 1024.5 1022.8 0.8
30/12:00pm 18.8 17.3 13.0 69 3.3 NNE 13 17 7 9 1025.1 1023.4 0.8
30/11:30am 19.7 18.4 13.6 68 3.6 NW 13 15 7 8 1025.6 1023.9 0.4
30/11:00am 22.1 19.9 10.9 49 6.3 NNW 13 15 7 8 1025.6 1023.9 0.0
30/10:30am 22.6 21.1 10.4 46 6.8 ENE 9 13 5 7 1025.3 1023.6 0.0
30/10:00am 21.8 20.3 11.8 53 5.7 ESE 11 13 6 7 1025.0 1023.3 0.0
30/09:30am 19.4 17.8 12.7 65 3.8 SE 13 15 7 8 1025.0 1023.3 0.0
30/09:00am 18.4 17.9 13.9 75 2.6 SE 9 13 5 7 1024.8 1023.1 0.2
30/08:30am 16.5 14.5 12.7 78 2.1 SSW 15 17 8 9 1024.5 1022.8 0.2
30/08:00am 17.1 15.8 11.4 69 3.1 SSE 9 9 5 5 1024.1 1022.4 0.0
30/07:30am 16.6 16.1 10.9 69 3.1 S 4 7 2 4 1023.7 1022.0 0.0
30/07:00am 16.1 16.3 10.6 70 3.0 CALM 0 0 0 0 1023.5 1021.8 0.0
30/06:30am 16.1 14.5 10.2 68 3.2 NNW 9 11 5 6 1023.1 1021.4 0.0
30/06:00am 16.0 14.6 9.4 65 3.5 N 7 9 4 5 1022.5 1020.8 0.0
30/05:30am 17.1 15.6 10.5 65 3.6 SSE 9 9 5 5 1021.8 1020.1 0.0
30/05:00am 17.5 16.2 10.1 62 4.0 SSW 7 9 4 5 1021.5 1019.8 0.0
30/04:30am 18.0 15.6 9.9 59 4.4 S 13 15 7 8 1021.2 1019.4 0.0
30/04:00am 18.0 15.5 9.6 58 4.5 S 13 15 7 8 1021.4 1019.7 0.0
30/03:30am 17.7 15.0 8.8 56 4.7 S 13 15 7 8 1021.5 1019.8 0.0
30/03:00am 17.4 14.3 7.2 51 5.2 S 13 15 7 8 1021.7 1020.0 0.0
30/02:30am 18.1 14.8 6.3 46 5.9 SSE 13 15 7 8 1021.8 1020.1 0.0
30/02:00am 18.2 14.3 5.4 43 6.3 SSE 15 17 8 9 1021.9 1020.2 0.0
30/01:30am 18.6 14.2 4.8 40 6.8 SSE 17 19 9 10 1022.2 1020.5 0.0
30/01:00am 18.2 14.6 5.1 42 6.4 SSE 13 15 7 8 1022.3 1020.6 0.0
30/12:30am 18.0 14.5 5.6 44 6.2 SSE 13 17 7 9 1022.4 1020.7 0.0
30/12:00am 17.9 14.5 5.8 45 6.0 SE 13 15 7 8 1022.5 1020.8 0.0
 
Date/Time
EDT
Temp
°C
App
Temp
°C
Dew
Point
Rel
Hum
%
Delta-T
°C
Wind Press
QNH
hPa
Press
MSL
hPa
Rain
since 9 am
mm
Dir
 
Spd
km/h
Gust
km/h
Spd
kts
Gust
kts
29/11:30pm 17.0 14.1 6.5 50 5.3 SE 11 15 6 8 1022.6 1020.9 0.0
29/11:00pm 18.3 16.5 5.2 42 6.4 SSE 4 7 2 4 1022.7 1021.0 0.0
29/10:30pm 17.7 17.0 6.9 49 5.5 CALM 0 0 0 0 1022.7 1021.0 0.0
29/10:00pm 18.9 18.1 6.4 44 6.3 CALM 0 0 0 0 1022.7 1021.0 0.0
29/09:30pm 19.7 18.8 6.1 41 6.9 CALM 0 0 0 0 1022.6 1020.9 0.0
29/09:00pm 20.8 19.0 7.1 41 7.1 E 6 9 3 5 1022.3 1020.6 0.0
29/08:30pm 20.6 17.7 6.5 40 7.3 SE 11 13 6 7 1021.8 1020.1 0.0
29/08:00pm 21.6 19.7 6.7 38 7.7 SE 6 9 3 5 1021.8 1020.1 0.0
29/07:30pm 24.0 23.2 6.7 33 9.1 CALM 0 0 0 0 1021.7 1020.0 0.0
29/07:00pm 23.2 21.7 6.9 35 8.6 S 4 7 2 4 1021.4 1019.7 0.0
29/06:30pm 25.3 23.2 6.5 30 9.9 SSW 7 13 4 7 1021.1 1019.3 0.0
29/06:00pm 26.8 25.7 5.1 25 11.3 CALM 0 0 0 0 1020.8 1019.0 0.0
29/05:30pm 27.5 24.5 3.9 22 12.1 WSW 9 13 5 7 1020.9 1019.1 0.0
29/05:00pm 28.1 25.3 3.0 20 12.7 W 7 9 4 5 1020.6 1018.9 0.0
29/04:30pm 29.1 25.0 2.4 18 13.5 WNW 13 20 7 11 1020.6 1018.9 0.0
29/04:00pm 28.9 23.4 0.6 16 13.8 WNW 19 26 10 14 1020.6 1018.9 0.0
29/03:30pm 28.5 23.3 2.7 19 13.0 W 19 30 10 16 1021.0 1019.2 0.0
29/03:00pm 28.3 23.5 2.5 19 12.9 NW 17 26 9 14 1021.3 1019.6 0.0
29/02:30pm 28.3 24.6 4.6 22 12.3 WNW 13 24 7 13 1021.6 1019.9 0.0
29/02:00pm 27.6 24.9 5.8 25 11.5 NW 9 19 5 10 1022.1 1020.4 0.0
29/01:30pm 27.7 25.3 7.0 27 11.2 SW 9 15 5 8 1022.6 1020.9 0.0
29/01:00pm 27.8 25.3 6.6 26 11.4 N 9 19 5 10 1023.0 1021.3 0.0
29/12:30pm 27.4 24.3 7.3 28 10.9 WNW 13 24 7 13 1023.5 1021.8 0.0
29/12:00pm 25.7 22.1 8.2 33 9.5 NW 17 30 9 16 1023.7 1022.0 0.0
29/11:30am 25.6 22.3 8.1 33 9.5 NW 15 26 8 14 1024.1 1022.4 0.0

Other Formats:

Comma delimited format used in spreadsheet applications
http://www.bom.gov.au/fwo/IDN60801/IDN60801.95762.axf

JavaScript Object Notation format (JSON) in row-major order
http://www.bom.gov.au/fwo/IDN60801/IDN60801.95762.json